LOWL/LNZ METAR and TAF weather

Enter ICAO airport designator
Station Type Date Time Source
LOWL METAR 2021/05/10 02:20 UTC NOAA

LOWL 100220Z AUTO VRB01KT 9999 NCD 12/08 Q1009


Station Type Date Time Source
LOWL Decoded METAR 2021/05/10 02:20 UTC NOAA

Linz / Hoersching-Flughafen, Austria (LOWL) 48-14N 014-11E 313M
May 09, 2021 - 10:20 PM EDT / 2021.05.10 0220 UTC
Wind: Variable at 1 MPH (1 KT):0
Visibility: greater than 7 mile(s):0
Temperature: 53 F (12 C)
Dew Point: 46 F (8 C)
Relative Humidity: 76%
Pressure (altimeter): 29.80 in. Hg (1009 hPa)
ob: LOWL 100220Z AUTO VRB01KT 9999 NCD 12/08 Q1009
cycle: 2

Station Type Date Time Source
LOWL TAF 2021/05/09 18:21 UTC NOAA

TAF LOWL 091715Z 0918/1018 09008KT CAVOK TX28/1015Z TN11/1004Z

Example: see airport list